Time;durP1;ratioP1;P1;durP2;ratioP2;P2;SDS_P1;SDS_P2;PMS_P1;PMS_P2;Temp;Humidity;BMP_temperature;BMP_pressure;BME280_temperature;BME280_humidity;BME280_pressure;Samples;Min_cycle;Max_cycle;Signal;HPM_P1;HPM_P2
2022/10/06 00:00:44;;;;;;;17.88;5.15;;;13.40;73.50;;;;;;5005285;28;20145;-76
2022/10/06 00:03:10;;;;;;;18.25;4.97;;;13.40;73.60;;;;;;4999986;28;20085;-75
2022/10/06 00:05:36;;;;;;;16.05;5.05;;;13.40;73.80;;;;;;5008067;28;20026;-75
2022/10/06 00:08:02;;;;;;;18.80;5.28;;;13.30;74.00;;;;;;5000136;28;20034;-77
2022/10/06 00:10:28;;;;;;;22.77;6.15;;;13.30;74.00;;;;;;5003566;28;20026;-75
2022/10/06 00:12:54;;;;;;;17.05;4.05;;;13.30;74.30;;;;;;5004641;28;20050;-77
2022/10/06 00:15:22;;;;;;;14.80;4.82;;;13.30;74.40;;;;;;4999259;28;20401;-78
2022/10/06 00:17:49;;;;;;;19.33;4.43;;;13.30;74.60;;;;;;5003182;28;20386;-74
2022/10/06 00:20:14;;;;;;;15.27;4.88;;;13.30;74.50;;;;;;4998437;28;20084;-77
2022/10/06 00:22:43;;;;;;;17.05;4.82;;;13.20;74.80;;;;;;5002097;28;20516;-76
2022/10/06 00:25:11;;;;;;;16.50;5.07;;;13.20;74.90;;;;;;5002418;28;20300;-75
2022/10/06 00:27:42;;;;;;;18.17;3.80;;;13.20;75.10;;;;;;4999438;28;20034;-77
2022/10/06 00:30:12;;;;;;;19.85;3.80;;;13.10;75.30;;;;;;5001762;28;20066;-77
2022/10/06 00:32:38;;;;;;;17.50;3.83;;;13.10;75.20;;;;;;5006615;28;20821;-75
2022/10/06 00:35:06;;;;;;;17.98;4.00;;;13.10;75.30;;;;;;5005331;28;20378;-77
2022/10/06 00:37:36;;;;;;;16.83;4.28;;;13.10;75.40;;;;;;4998958;28;20093;-77
2022/10/06 00:40:08;;;;;;;20.30;4.20;;;13.10;75.40;;;;;;5002432;28;20045;-77
2022/10/06 00:42:47;;;;;;;15.60;3.90;;;13.00;75.50;;;;;;5002902;28;20038;-77
2022/10/06 00:45:13;;;;;;;19.00;3.80;;;13.00;75.50;;;;;;5003591;28;20038;-76
2022/10/06 00:47:40;;;;;;;21.02;4.32;;;13.00;75.60;;;;;;4998918;28;20260;-79
2022/10/06 00:50:07;;;;;;;20.20;3.55;;;12.90;75.60;;;;;;5001735;28;20081;-76
2022/10/06 00:52:32;;;;;;;17.00;3.85;;;12.90;75.50;;;;;;5001315;28;20436;-77
2022/10/06 00:54:58;;;;;;;22.80;3.85;;;12.90;75.70;;;;;;5001513;28;20042;-75
2022/10/06 00:57:25;;;;;;;20.30;3.67;;;12.80;75.80;;;;;;5002317;28;20389;-75
2022/10/06 00:59:51;;;;;;;15.23;3.20;;;12.80;76.10;;;;;;4998612;28;20030;-75
2022/10/06 01:02:19;;;;;;;15.20;2.83;;;12.80;75.90;;;;;;4997914;28;20316;-74
2022/10/06 01:04:51;;;;;;;17.83;3.63;;;12.70;75.80;;;;;;5004556;28;20030;-76
2022/10/06 01:07:19;;;;;;;15.77;3.83;;;12.80;75.80;;;;;;5002612;28;20111;-74
2022/10/06 01:09:45;;;;;;;17.42;3.50;;;12.70;75.70;;;;;;5002240;28;20026;-76
2022/10/06 01:12:10;;;;;;;15.02;3.92;;;12.70;75.80;;;;;;5018878;28;20380;-76
2022/10/06 01:14:38;;;;;;;16.98;3.47;;;12.70;75.80;;;;;;5003373;28;20041;-74
2022/10/06 01:17:13;;;;;;;19.60;3.75;;;12.70;75.90;;;;;;5001267;28;20416;-76
2022/10/06 01:19:50;;;;;;;18.30;4.82;;;12.70;75.90;;;;;;4996912;28;20040;-75
2022/10/06 01:22:44;;;;;;;18.40;3.75;;;12.60;75.90;;;;;;5001112;28;20051;-76
2022/10/06 01:25:14;;;;;;;16.33;3.70;;;12.60;76.50;;;;;;5006614;28;20047;-76
2022/10/06 01:27:42;;;;;;;15.90;3.95;;;12.50;76.40;;;;;;5004439;28;20068;-74
2022/10/06 01:30:13;;;;;;;17.02;4.28;;;12.60;76.40;;;;;;4997871;28;20721;-76
2022/10/06 01:32:39;;;;;;;21.45;4.18;;;12.50;76.50;;;;;;5007130;28;20576;-76
2022/10/06 01:35:07;;;;;;;13.13;2.70;;;12.40;76.80;;;;;;5005073;28;20038;-77
2022/10/06 01:37:33;;;;;;;16.05;3.42;;;12.40;77.00;;;;;;5004847;28;20041;-74
2022/10/06 01:39:59;;;;;;;16.17;3.58;;;12.30;77.10;;;;;;5020267;28;20442;-77
2022/10/06 01:42:24;;;;;;;15.23;3.40;;;12.30;77.20;;;;;;5002864;28;20029;-75
2022/10/06 01:44:50;;;;;;;16.45;4.10;;;12.30;77.20;;;;;;5005451;28;20024;-76
2022/10/06 01:47:16;;;;;;;20.52;3.75;;;12.20;77.30;;;;;;5006737;28;20022;-75
2022/10/06 01:49:41;;;;;;;18.15;3.65;;;12.20;77.30;;;;;;5005811;28;20034;-76
2022/10/06 01:52:08;;;;;;;21.85;3.70;;;12.20;77.40;;;;;;4998197;28;20073;-74
2022/10/06 01:54:33;;;;;;;17.65;3.00;;;12.20;77.50;;;;;;4999844;28;20050;-76
2022/10/06 01:56:59;;;;;;;20.75;3.78;;;12.20;77.30;;;;;;5004995;28;20034;-75
2022/10/06 01:59:25;;;;;;;17.85;2.85;;;12.20;77.40;;;;;;5001351;28;20511;-75
2022/10/06 02:01:50;;;;;;;17.38;3.40;;;12.10;77.70;;;;;;5006276;28;20057;-78
2022/10/06 02:04:16;;;;;;;16.55;3.17;;;12.10;77.60;;;;;;4999813;28;20050;-77
2022/10/06 02:06:42;;;;;;;15.65;3.28;;;12.10;77.60;;;;;;5006193;28;20033;-77
2022/10/06 02:09:07;;;;;;;14.57;3.38;;;12.10;77.70;;;;;;5009318;28;20030;-75
2022/10/06 02:11:34;;;;;;;16.38;3.20;;;12.00;78.00;;;;;;5002037;28;20496;-74
2022/10/06 02:14:00;;;;;;;15.77;3.10;;;11.90;77.70;;;;;;5005425;28;20053;-75
2022/10/06 02:16:27;;;;;;;13.40;3.42;;;11.90;77.70;;;;;;5002785;28;20259;-75
2022/10/06 02:18:53;;;;;;;18.63;3.70;;;11.90;77.90;;;;;;5005902;28;20453;-75
2022/10/06 02:21:21;;;;;;;18.17;3.55;;;11.80;78.10;;;;;;5003101;28;20044;-80
2022/10/06 02:23:47;;;;;;;12.13;2.85;;;11.80;78.30;;;;;;5000599;28;20045;-73
2022/10/06 02:26:16;;;;;;;17.77;4.10;;;11.80;78.40;;;;;;5005184;28;20341;-74
2022/10/06 02:28:43;;;;;;;18.17;3.80;;;11.80;78.40;;;;;;5004000;28;20156;-75
2022/10/06 02:31:09;;;;;;;15.73;3.65;;;11.70;78.40;;;;;;5001397;28;20125;-75
2022/10/06 02:33:36;;;;;;;12.50;3.17;;;11.70;78.40;;;;;;5000491;28;20037;-75
2022/10/06 02:36:03;;;;;;;17.35;3.40;;;11.70;78.50;;;;;;5003610;28;20034;-76
2022/10/06 02:38:31;;;;;;;19.73;3.80;;;11.70;78.50;;;;;;4994464;28;20030;-74
2022/10/06 02:40:57;;;;;;;17.40;3.28;;;11.60;78.80;;;;;;5001044;28;20026;-73
2022/10/06 02:43:22;;;;;;;20.77;3.58;;;11.60;79.10;;;;;;4998680;28;20029;-76
2022/10/06 02:46:06;;;;;;;17.63;3.50;;;11.60;79.10;;;;;;5001246;28;20517;-75
2022/10/06 02:48:33;;;;;;;19.45;4.43;;;11.60;79.10;;;;;;5020790;28;20026;-77
2022/10/06 02:51:02;;;;;;;15.10;3.92;;;11.60;79.20;;;;;;5007297;28;20137;-75
2022/10/06 02:53:28;;;;;;;17.75;3.67;;;11.60;79.30;;;;;;5003475;28;20087;-76
2022/10/06 02:56:21;;;;;;;16.05;3.72;;;11.50;79.30;;;;;;4999391;28;20060;-75
2022/10/06 02:58:49;;;;;;;18.63;4.43;;;11.50;79.50;;;;;;5000029;28;20113;-76
2022/10/06 03:01:17;;;;;;;16.58;3.75;;;11.50;79.60;;;;;;5002151;28;20038;-76
2022/10/06 03:03:45;;;;;;;17.65;3.83;;;11.40;79.80;;;;;;5005742;28;20042;-75
2022/10/06 03:06:21;;;;;;;18.55;4.00;;;11.40;79.70;;;;;;4998562;28;20555;-75
2022/10/06 03:09:08;;;;;;;20.23;3.60;;;11.30;79.90;;;;;;5003159;28;20037;-75
2022/10/06 03:11:36;;;;;;;16.70;3.83;;;11.40;80.10;;;;;;4998038;28;20259;-76
2022/10/06 03:14:01;;;;;;;22.80;4.30;;;11.40;80.10;;;;;;5002978;28;20478;-77
2022/10/06 03:16:30;;;;;;;15.77;3.22;;;11.40;80.20;;;;;;5004393;28;20037;-75
2022/10/06 03:18:57;;;;;;;16.70;3.42;;;11.40;80.20;;;;;;5005717;28;20132;-76
2022/10/06 03:21:28;;;;;;;19.95;4.47;;;11.40;80.10;;;;;;5003681;28;20473;-77
2022/10/06 03:23:55;;;;;;;16.85;4.00;;;11.40;80.20;;;;;;5002735;28;20447;-75
2022/10/06 03:26:26;;;;;;;13.93;3.95;;;11.40;80.20;;;;;;5003876;28;20937;-77
2022/10/06 03:28:53;;;;;;;14.45;3.38;;;11.40;80.30;;;;;;4995658;28;20046;-76
2022/10/06 03:31:18;;;;;;;17.50;3.90;;;11.40;80.40;;;;;;4997017;28;20054;-76
2022/10/06 03:33:44;;;;;;;16.88;3.75;;;11.40;80.30;;;;;;5002600;28;20068;-77
2022/10/06 03:36:12;;;;;;;20.85;4.72;;;11.40;80.40;;;;;;5000538;28;20038;-76
2022/10/06 03:38:38;;;;;;;13.80;3.60;;;11.40;80.30;;;;;;4999501;28;20378;-75
2022/10/06 03:41:09;;;;;;;14.85;3.33;;;11.30;80.40;;;;;;5004957;28;20026;-75
2022/10/06 03:43:36;;;;;;;18.15;3.75;;;11.30;80.40;;;;;;5001408;28;20045;-76
2022/10/06 03:46:03;;;;;;;18.42;5.35;;;11.30;80.60;;;;;;5004206;28;20060;-76
2022/10/06 03:48:30;;;;;;;21.70;3.50;;;11.20;80.80;;;;;;5007735;28;20116;-77
2022/10/06 03:50:57;;;;;;;15.75;3.60;;;11.20;80.90;;;;;;5004200;28;20030;-76
2022/10/06 03:53:26;;;;;;;18.67;4.25;;;11.20;81.00;;;;;;4996461;28;20046;-79
2022/10/06 03:56:21;;;;;;;19.98;3.90;;;11.10;81.00;;;;;;4997309;28;20030;-77
2022/10/06 03:58:55;;;;;;;12.30;3.37;;;11.10;81.20;;;;;;5004819;28;20038;-77
2022/10/06 04:01:29;;;;;;;16.05;3.75;;;11.10;81.40;;;;;;5001436;28;20273;-76
2022/10/06 04:03:56;;;;;;;19.52;3.78;;;11.10;81.40;;;;;;5008459;28;20480;-76
2022/10/06 04:06:23;;;;;;;20.65;3.28;;;11.10;81.60;;;;;;5001094;28;20046;-77
2022/10/06 04:08:51;;;;;;;17.80;3.83;;;11.00;81.60;;;;;;5002037;28;20038;-75
2022/10/06 04:11:22;;;;;;;18.15;5.22;;;11.00;81.90;;;;;;5001584;28;20462;-77
2022/10/06 04:13:52;;;;;;;19.88;3.97;;;10.90;82.00;;;;;;5004112;28;20046;-76
2022/10/06 04:16:23;;;;;;;15.90;3.42;;;10.90;82.00;;;;;;4999293;28;20038;-76
2022/10/06 04:18:54;;;;;;;12.35;2.70;;;10.80;82.20;;;;;;5000596;28;20034;-74
2022/10/06 04:21:20;;;;;;;19.75;3.90;;;10.80;82.40;;;;;;4997441;28;20026;-79
2022/10/06 04:23:46;;;;;;;17.50;3.63;;;10.80;82.40;;;;;;4997119;28;20389;-76
2022/10/06 04:26:15;;;;;;;17.70;3.88;;;10.80;82.40;;;;;;5000689;28;21164;-75
2022/10/06 04:28:42;;;;;;;18.08;3.67;;;10.80;82.60;;;;;;5000382;28;20432;-75
2022/10/06 04:31:16;;;;;;;21.70;4.25;;;10.80;82.60;;;;;;5000475;28;20342;-75
2022/10/06 04:33:45;;;;;;;13.77;3.77;;;10.80;82.70;;;;;;5015507;28;20133;-76
2022/10/06 04:36:15;;;;;;;15.20;3.20;;;10.70;82.70;;;;;;5006284;28;20284;-76
2022/10/06 04:38:41;;;;;;;22.50;3.58;;;10.70;82.80;;;;;;5002044;28;20044;-77
2022/10/06 04:41:12;;;;;;;18.20;3.30;;;10.70;82.80;;;;;;5000276;28;20397;-76
2022/10/06 04:43:38;;;;;;;17.75;3.90;;;10.70;82.80;;;;;;5001054;28;20034;-75
2022/10/06 04:46:04;;;;;;;15.68;3.60;;;10.60;83.10;;;;;;5009402;28;20375;-76
2022/10/06 04:48:31;;;;;;;20.20;4.50;;;10.70;83.00;;;;;;5005224;28;20025;-77
2022/10/06 04:50:59;;;;;;;19.20;3.63;;;10.60;83.20;;;;;;5003525;28;20037;-77
2022/10/06 04:53:25;;;;;;;16.75;3.58;;;10.60;83.20;;;;;;5002588;28;20038;-75
2022/10/06 04:56:13;;;;;;;17.13;3.65;;;10.60;83.20;;;;;;4999514;28;20046;-77
2022/10/06 04:58:41;;;;;;;21.05;3.67;;;10.60;83.20;;;;;;4995668;28;20465;-75
2022/10/06 05:01:21;;;;;;;18.95;4.70;;;10.60;83.30;;;;;;5001391;28;20046;-74
2022/10/06 05:03:49;;;;;;;15.55;3.92;;;10.60;83.20;;;;;;5003031;28;20045;-75
2022/10/06 05:06:16;;;;;;;19.05;3.53;;;10.60;83.40;;;;;;5008768;28;20044;-75
2022/10/06 05:08:45;;;;;;;14.05;3.63;;;10.50;83.40;;;;;;5004769;28;20034;-75
2022/10/06 05:11:11;;;;;;;18.85;4.07;;;10.50;83.40;;;;;;5007179;28;20065;-77
2022/10/06 05:13:38;;;;;;;22.00;4.93;;;10.50;83.60;;;;;;5003525;28;20034;-74
2022/10/06 05:16:07;;;;;;;14.98;3.38;;;10.40;83.70;;;;;;5004776;28;20041;-76
2022/10/06 05:18:34;;;;;;;18.65;4.35;;;10.50;83.70;;;;;;5008260;28;20079;-74
2022/10/06 05:21:05;;;;;;;20.58;4.18;;;10.50;83.70;;;;;;5007127;28;20436;-77
2022/10/06 05:23:35;;;;;;;20.10;4.53;;;10.40;83.80;;;;;;5018201;28;20469;-75
2022/10/06 05:26:00;;;;;;;17.40;3.88;;;10.40;83.80;;;;;;5006552;28;20151;-76
2022/10/06 05:28:28;;;;;;;17.65;3.90;;;10.40;83.90;;;;;;5007192;28;20062;-75
2022/10/06 05:31:21;;;;;;;22.40;4.00;;;10.40;83.90;;;;;;5007648;28;20527;-77
2022/10/06 05:33:47;;;;;;;20.92;5.28;;;10.30;83.90;;;;;;5006085;28;20050;-76
2022/10/06 05:36:19;;;;;;;19.95;4.25;;;10.30;84.00;;;;;;5006292;28;20147;-76
2022/10/06 05:38:45;;;;;;;21.13;5.10;;;10.40;84.10;;;;;;5007613;28;20317;-75
2022/10/06 05:41:14;;;;;;;20.25;4.43;;;10.30;84.00;;;;;;5005201;28;20129;-76
2022/10/06 05:43:40;;;;;;;14.88;3.88;;;10.30;84.20;;;;;;5005699;28;20522;-79
2022/10/06 05:46:11;;;;;;;21.20;4.47;;;10.30;84.20;;;;;;5000368;28;20492;-75
2022/10/06 05:48:37;;;;;;;17.45;3.97;;;10.30;84.30;;;;;;5008110;28;20033;-76
2022/10/06 05:51:05;;;;;;;15.15;4.00;;;10.20;84.10;;;;;;5004219;28;20030;-77
2022/10/06 05:53:33;;;;;;;19.42;4.63;;;10.20;84.10;;;;;;5004997;28;20084;-76
2022/10/06 05:56:14;;;;;;;17.27;3.97;;;10.20;84.20;;;;;;5003925;28;20145;-76
2022/10/06 05:58:42;;;;;;;21.73;3.97;;;10.20;84.40;;;;;;5003954;28;20320;-76
2022/10/06 06:01:13;;;;;;;23.63;4.15;;;10.20;84.30;;;;;;5005561;28;20045;-76
2022/10/06 06:03:40;;;;;;;15.27;3.28;;;10.20;84.10;;;;;;5000896;28;20117;-77
2022/10/06 06:06:28;;;;;;;17.80;3.75;;;10.20;84.20;;;;;;5000377;28;20183;-77
2022/10/06 06:09:16;;;;;;;16.92;3.60;;;10.20;84.10;;;;;;5006682;28;20458;-74
2022/10/06 06:11:44;;;;;;;17.08;5.25;;;10.30;84.10;;;;;;5001481;28;20133;-77
2022/10/06 06:14:15;;;;;;;20.38;4.50;;;10.20;84.00;;;;;;5006114;28;20042;-75
2022/10/06 06:16:41;;;;;;;17.98;4.30;;;10.30;84.00;;;;;;5004886;28;20022;-79
2022/10/06 06:19:09;;;;;;;18.75;4.35;;;10.30;83.90;;;;;;5022363;28;20485;-80
2022/10/06 06:21:34;;;;;;;19.40;5.90;;;10.40;83.80;;;;;;5004139;28;20203;-79
2022/10/06 06:24:00;;;;;;;15.93;3.78;;;10.40;83.40;;;;;;5008580;28;20617;-78
2022/10/06 06:26:31;;;;;;;19.27;4.43;;;10.50;83.40;;;;;;5009608;28;20034;-79
2022/10/06 06:29:02;;;;;;;23.92;4.78;;;10.60;83.20;;;;;;5010483;28;20050;-80
2022/10/06 06:31:30;;;;;;;13.88;3.80;;;10.60;83.00;;;;;;5002363;28;20069;-80
2022/10/06 06:33:58;;;;;;;14.95;4.45;;;10.60;82.90;;;;;;4999040;28;20035;-79
2022/10/06 06:36:30;;;;;;;21.60;4.53;;;10.60;82.70;;;;;;5002009;28;20396;-80
2022/10/06 06:38:57;;;;;;;18.10;4.60;;;10.70;82.80;;;;;;5006231;28;20026;-81
2022/10/06 06:41:28;;;;;;;17.65;4.80;;;10.70;82.70;;;;;;5001579;28;20034;-79
2022/10/06 06:43:54;;;;;;;25.13;4.95;;;10.70;82.80;;;;;;5021660;28;20104;-80
2022/10/06 06:46:26;;;;;;;16.98;4.65;;;10.80;82.60;;;;;;5005176;28;20064;-81
2022/10/06 06:48:53;;;;;;;18.48;4.20;;;10.90;82.30;;;;;;4999498;28;20149;-80
2022/10/06 06:51:21;;;;;;;20.10;5.15;;;10.90;82.40;;;;;;5009181;28;20117;-80
2022/10/06 06:53:47;;;;;;;19.27;5.53;;;11.00;82.20;;;;;;5002606;28;20060;-80
2022/10/06 06:56:13;;;;;;;21.20;4.97;;;11.00;82.30;;;;;;5004806;28;20112;-80
2022/10/06 06:58:42;;;;;;;17.75;4.45;;;11.00;82.30;;;;;;5002962;28;20030;-79
2022/10/06 07:01:13;;;;;;;18.52;3.88;;;11.00;82.30;;;;;;5003251;28;20029;-80
2022/10/06 07:03:47;;;;;;;23.45;4.85;;;11.10;82.30;;;;;;5006340;28;20022;-80
2022/10/06 07:06:15;;;;;;;23.20;4.50;;;11.10;82.30;;;;;;5009569;28;20072;-80
2022/10/06 07:08:43;;;;;;;19.25;4.07;;;11.10;82.20;;;;;;5011838;28;20429;-79
2022/10/06 07:11:14;;;;;;;18.23;4.22;;;11.10;82.20;;;;;;5001905;28;20497;-80
2022/10/06 07:13:41;;;;;;;14.02;3.80;;;11.20;82.00;;;;;;5022447;28;20069;-80
2022/10/06 07:27:07;;;;;;;16.87;3.53;;;11.50;81.60;;;;;;5001454;28;20161;-76
2022/10/06 07:29:33;;;;;;;19.02;4.22;;;11.60;81.60;;;;;;4997086;28;20514;-78
2022/10/06 07:31:59;;;;;;;18.42;4.53;;;11.60;81.40;;;;;;5001317;28;20454;-79
2022/10/06 07:34:26;;;;;;;16.05;4.50;;;11.70;81.40;;;;;;5000055;28;20492;-79
2022/10/06 07:36:53;;;;;;;15.18;3.95;;;11.80;81.40;;;;;;5018062;28;20087;-79
2022/10/06 07:39:19;;;;;;;13.95;4.05;;;11.90;81.30;;;;;;5010398;28;20132;-79
2022/10/06 07:41:45;;;;;;;14.60;4.30;;;12.10;80.90;;;;;;5010829;28;20030;-78
2022/10/06 07:44:10;;;;;;;19.92;4.53;;;12.20;80.70;;;;;;5003760;28;20065;-79
2022/10/06 07:46:36;;;;;;;15.65;4.00;;;12.30;80.00;;;;;;5007927;28;20034;-80
2022/10/06 07:49:01;;;;;;;19.45;4.57;;;12.50;79.30;;;;;;5007439;28;20052;-79
2022/10/06 07:51:27;;;;;;;14.10;4.35;;;12.60;78.70;;;;;;5006326;28;20045;-79
2022/10/06 07:53:53;;;;;;;13.23;3.78;;;12.80;78.30;;;;;;5016456;28;20057;-78
2022/10/06 07:56:19;;;;;;;15.18;4.05;;;13.00;77.90;;;;;;4998098;28;20046;-79
2022/10/06 07:58:46;;;;;;;22.58;4.70;;;13.20;77.40;;;;;;5002985;28;20042;-79
2022/10/06 08:01:14;;;;;;;19.00;4.13;;;13.40;76.50;;;;;;5000937;28;20030;-79
2022/10/06 08:03:40;;;;;;;14.05;3.70;;;13.60;76.20;;;;;;5003691;28;20045;-78
2022/10/06 08:06:15;;;;;;;19.23;4.85;;;13.80;75.40;;;;;;5017913;28;20065;-78
2022/10/06 08:08:42;;;;;;;15.75;4.07;;;14.00;74.30;;;;;;5001424;28;20524;-77
2022/10/06 08:11:10;;;;;;;11.30;3.47;;;14.10;73.50;;;;;;4994796;28;20070;-78
2022/10/06 08:13:38;;;;;;;16.00;3.88;;;14.30;72.30;;;;;;5006376;28;20045;-79
2022/10/06 08:16:19;;;;;;;17.08;3.17;;;14.50;71.60;;;;;;5003124;28;20037;-79
2022/10/06 08:18:49;;;;;;;12.75;3.50;;;14.70;70.80;;;;;;4999210;28;20042;-79
2022/10/06 08:21:18;;;;;;;13.35;2.90;;;14.80;69.60;;;;;;5003354;28;20084;-78
2022/10/06 08:23:46;;;;;;;17.75;3.47;;;15.00;70.20;;;;;;4999501;28;20040;-77
2022/10/06 08:26:13;;;;;;;11.48;2.97;;;15.10;68.80;;;;;;5002163;28;20042;-78
2022/10/06 08:28:46;;;;;;;12.98;3.47;;;15.20;68.80;;;;;;4998045;28;20132;-78
2022/10/06 08:31:14;;;;;;;14.35;3.15;;;15.40;68.60;;;;;;5000731;28;20060;-78
2022/10/06 08:33:41;;;;;;;12.05;2.80;;;15.50;67.70;;;;;;4997219;28;20042;-78
2022/10/06 08:36:13;;;;;;;12.48;2.53;;;15.60;66.60;;;;;;5002127;28;20425;-78
2022/10/06 08:38:39;;;;;;;14.23;3.88;;;15.70;66.40;;;;;;5000152;28;20109;-77
2022/10/06 08:41:26;;;;;;;19.00;3.35;;;15.70;66.60;;;;;;5017212;28;20541;-78
2022/10/06 08:43:55;;;;;;;14.18;3.25;;;15.60;66.00;;;;;;5002660;28;20060;-77
2022/10/06 08:46:23;;;;;;;10.90;3.63;;;15.60;66.90;;;;;;4995594;28;20042;-79
2022/10/06 08:48:49;;;;;;;12.90;3.05;;;15.80;67.50;;;;;;4998261;28;20664;-77
2022/10/06 08:51:59;;;;;;;11.43;3.03;;;16.00;66.30;;;;;;4999925;28;20045;-78
2022/10/06 08:54:48;;;;;;;12.93;3.08;;;16.00;65.70;;;;;;4997859;28;20205;-77
2022/10/06 08:57:28;;;;;;;14.98;2.70;;;16.00;65.10;;;;;;5004167;28;20113;-77
2022/10/06 08:59:57;;;;;;;15.30;3.05;;;16.00;66.20;;;;;;5000999;28;20054;-78
2022/10/06 09:02:37;;;;;;;14.60;3.30;;;15.90;65.60;;;;;;5001937;28;20026;-78
2022/10/06 09:05:05;;;;;;;11.15;2.35;;;15.60;66.10;;;;;;5007097;28;20048;-78
2022/10/06 09:08:05;;;;;;;15.90;2.88;;;15.80;66.10;;;;;;5003326;28;20407;-78
2022/10/06 09:10:58;;;;;;;15.32;3.03;;;16.10;64.90;;;;;;4984129;28;20044;-79
2022/10/06 09:13:30;;;;;;;13.30;2.95;;;16.10;64.30;;;;;;5007075;28;20428;-79
2022/10/06 09:16:06;;;;;;;15.02;3.10;;;16.20;65.10;;;;;;4986357;28;20045;-77
2022/10/06 09:18:38;;;;;;;12.80;2.72;;;16.40;63.90;;;;;;4999296;28;20038;-78
2022/10/06 09:21:15;;;;;;;11.32;2.90;;;16.50;63.70;;;;;;5001456;28;20132;-77
2022/10/06 09:23:46;;;;;;;11.63;2.53;;;16.40;63.90;;;;;;4999928;28;20060;-77
2022/10/06 09:26:17;;;;;;;10.13;1.90;;;16.40;63.80;;;;;;5006619;28;20025;-78
2022/10/06 09:28:45;;;;;;;13.35;2.92;;;16.50;63.90;;;;;;4998029;28;20042;-77
2022/10/06 09:31:36;;;;;;;12.80;2.90;;;16.70;64.40;;;;;;5007418;28;20065;-76
2022/10/06 09:34:42;;;;;;;17.02;2.40;;;16.70;62.90;;;;;;5001332;28;20041;-75
2022/10/06 09:37:11;;;;;;;10.85;2.65;;;17.00;63.00;;;;;;5003479;28;20038;-77
2022/10/06 09:39:57;;;;;;;12.05;2.42;;;17.00;61.50;;;;;;5010005;28;20025;-77
2022/10/06 09:42:34;;;;;;;15.77;3.03;;;17.00;61.70;;;;;;5014396;28;20038;-79
2022/10/06 09:45:23;;;;;;;12.00;2.83;;;17.00;63.30;;;;;;5002296;28;20220;-76
2022/10/06 09:47:49;;;;;;;10.68;2.55;;;17.20;62.20;;;;;;5003773;28;20269;-76
2022/10/06 09:50:26;;;;;;;8.60;2.08;;;17.10;61.00;;;;;;5002010;28;20050;-76
2022/10/06 09:53:04;;;;;;;12.85;2.58;;;17.10;60.70;;;;;;5002231;28;20583;-77
2022/10/06 09:55:35;;;;;;;11.15;2.72;;;16.80;61.90;;;;;;5006643;28;20037;-77
2022/10/06 09:58:02;;;;;;;10.50;2.45;;;16.90;62.00;;;;;;5000930;28;20026;-75
2022/10/06 10:00:34;;;;;;;15.13;2.70;;;17.00;60.80;;;;;;5014186;28;20033;-77
2022/10/06 10:03:04;;;;;;;13.68;2.95;;;17.20;60.90;;;;;;5003144;28;20041;-76
2022/10/06 10:05:32;;;;;;;13.50;2.47;;;17.10;60.70;;;;;;5005482;28;20038;-77
2022/10/06 10:08:17;;;;;;;11.68;2.22;;;17.20;59.20;;;;;;5011937;28;20101;-79
2022/10/06 10:10:43;;;;;;;7.97;1.80;;;17.20;58.70;;;;;;5003773;28;20062;-80
2022/10/06 10:13:25;;;;;;;9.23;1.98;;;17.30;59.40;;;;;;5006534;28;20085;-76
2022/10/06 10:16:01;;;;;;;14.88;2.28;;;17.40;59.50;;;;;;4996602;28;20057;-79
2022/10/06 10:18:30;;;;;;;11.80;2.60;;;17.40;58.80;;;;;;4994938;28;20065;-77
2022/10/06 10:21:04;;;;;;;11.43;2.28;;;17.50;58.30;;;;;;5007394;28;20037;-75
2022/10/06 10:23:37;;;;;;;10.73;2.42;;;17.60;57.70;;;;;;4989524;28;20565;-76
2022/10/06 10:26:26;;;;;;;11.15;2.28;;;17.80;58.20;;;;;;5006281;28;20033;-77
2022/10/06 10:29:30;;;;;;;10.50;2.33;;;17.70;56.90;;;;;;5002775;28;20034;-78
2022/10/06 10:31:55;;;;;;;9.30;1.77;;;17.70;55.60;;;;;;4962383;28;20576;-77
2022/10/06 10:34:49;;;;;;;12.27;2.35;;;18.00;55.30;;;;;;4993685;28;20145;-77
2022/10/06 10:37:30;;;;;;;10.43;1.85;;;18.30;55.40;;;;;;4996797;28;20046;-78
2022/10/06 10:40:23;;;;;;;8.57;1.70;;;18.30;53.40;;;;;;4995087;28;20037;-78
2022/10/06 10:43:08;;;;;;;9.13;1.90;;;18.10;53.20;;;;;;5012424;28;20048;-78
2022/10/06 10:45:40;;;;;;;9.68;1.80;;;18.20;51.80;;;;;;5008376;28;20575;-78
2022/10/06 10:48:16;;;;;;;13.63;2.13;;;17.90;51.80;;;;;;4994892;28;20046;-77
2022/10/06 10:50:57;;;;;;;7.80;1.73;;;18.10;54.00;;;;;;4993187;28;20477;-77
2022/10/06 10:53:31;;;;;;;9.00;1.88;;;18.10;52.80;;;;;;4996377;28;20044;-77
2022/10/06 10:55:59;;;;;;;5.15;1.73;;;18.00;50.50;;;;;;4992923;28;20037;-79
2022/10/06 10:58:35;;;;;;;5.80;1.30;;;18.10;50.80;;;;;;4993999;28;20038;-78
2022/10/06 11:01:16;;;;;;;5.75;1.58;;;18.10;48.80;;;;;;4990864;28;20025;-76
2022/10/06 11:03:42;;;;;;;4.38;1.33;;;18.10;49.60;;;;;;4996296;28;20496;-78
2022/10/06 11:06:40;;;;;;;6.72;1.60;;;18.00;47.00;;;;;;4994033;28;20034;-77
2022/10/06 11:09:08;;;;;;;6.35;1.40;;;17.80;48.50;;;;;;5001941;28;20052;-79
2022/10/06 11:12:01;;;;;;;7.10;1.55;;;17.60;48.40;;;;;;4995247;28;20077;-77
2022/10/06 11:14:34;;;;;;;7.45;1.52;;;17.60;50.50;;;;;;4992596;28;20109;-77
2022/10/06 11:17:28;;;;;;;8.98;1.65;;;17.90;50.90;;;;;;4996330;28;20050;-77
2022/10/06 11:20:03;;;;;;;6.23;1.67;;;17.90;48.80;;;;;;4988805;28;20046;-78
2022/10/06 11:22:31;;;;;;;7.35;1.88;;;18.10;49.90;;;;;;4995133;28;20376;-77
2022/10/06 11:25:27;;;;;;;6.20;1.25;;;18.40;48.80;;;;;;4997819;28;20437;-78
2022/10/06 11:28:04;;;;;;;10.23;1.88;;;18.60;47.90;;;;;;4982662;28;20029;-78
2022/10/06 11:30:34;;;;;;;7.13;1.98;;;18.80;47.60;;;;;;4993244;28;20026;-78
2022/10/06 11:33:16;;;;;;;9.68;2.10;;;18.60;47.50;;;;;;5003747;28;20065;-77
2022/10/06 11:35:44;;;;;;;8.13;1.60;;;18.00;48.90;;;;;;5001581;28;20031;-78
2022/10/06 11:38:43;;;;;;;9.63;1.85;;;18.20;49.50;;;;;;5001309;28;20045;-79
2022/10/06 11:41:30;;;;;;;8.77;2.03;;;18.40;49.90;;;;;;5005876;28;20033;-79
2022/10/06 11:44:15;;;;;;;13.38;1.98;;;18.60;50.60;;;;;;5001237;28;20026;-77
2022/10/06 11:46:52;;;;;;;10.25;2.08;;;18.60;50.30;;;;;;5004927;28;20117;-76
2022/10/06 11:49:30;;;;;;;7.40;1.80;;;18.60;51.40;;;;;;5000839;28;20036;-77
2022/10/06 11:52:06;;;;;;;10.35;2.00;;;18.60;50.90;;;;;;5006500;28;20034;-77
2022/10/06 11:54:46;;;;;;;8.73;2.22;;;18.40;51.40;;;;;;5004867;28;20128;-77
2022/10/06 11:57:21;;;;;;;11.18;2.10;;;18.50;52.40;;;;;;5014212;28;20536;-78
2022/10/06 12:00:14;;;;;;;7.28;1.63;;;18.30;51.20;;;;;;5003362;28;20129;-76
2022/10/06 12:02:41;;;;;;;8.40;1.70;;;18.50;50.80;;;;;;4994378;28;20145;-78
2022/10/06 12:05:17;;;;;;;11.15;2.40;;;18.50;52.00;;;;;;5001626;28;20061;-77
2022/10/06 12:07:56;;;;;;;9.57;1.90;;;18.60;52.20;;;;;;5002195;28;20073;-77
2022/10/06 12:10:28;;;;;;;7.80;1.77;;;18.60;51.20;;;;;;5001680;28;20030;-78
2022/10/06 12:13:15;;;;;;;9.55;2.20;;;18.40;51.50;;;;;;5003481;28;20030;-78
2022/10/06 12:15:46;;;;;;;6.72;1.65;;;18.60;51.00;;;;;;5003107;28;20488;-78
2022/10/06 12:18:47;;;;;;;11.90;1.83;;;18.60;52.20;;;;;;5002990;28;20430;-77
2022/10/06 12:21:35;;;;;;;12.20;2.17;;;18.60;51.60;;;;;;4997302;28;20096;-78
2022/10/06 12:24:15;;;;;;;7.25;1.92;;;18.10;52.50;;;;;;5004752;28;20034;-78
2022/10/06 12:26:43;;;;;;;10.38;2.30;;;18.60;52.60;;;;;;5003425;28;20034;-77
2022/10/06 12:29:41;;;;;;;10.63;2.10;;;18.80;52.10;;;;;;5010369;28;20533;-77
2022/10/06 12:32:47;;;;;;;13.05;2.83;;;18.80;52.40;;;;;;5001868;28;20038;-78
2022/10/06 12:35:32;;;;;;;11.15;2.17;;;18.90;52.00;;;;;;5002514;28;20460;-76
2022/10/06 12:38:06;;;;;;;8.25;2.13;;;19.10;51.60;;;;;;5003449;28;20026;-79
2022/10/06 12:40:40;;;;;;;11.57;2.28;;;19.20;50.80;;;;;;4998037;28;20084;-78
2022/10/06 12:43:19;;;;;;;8.18;1.42;;;18.70;51.30;;;;;;5007275;28;20045;-76
2022/10/06 12:45:54;;;;;;;9.15;2.00;;;18.80;52.20;;;;;;5003844;28;20037;-77
2022/10/06 12:48:20;;;;;;;10.10;2.42;;;18.50;53.60;;;;;;5011091;28;20048;-77
2022/10/06 12:50:50;;;;;;;13.15;2.42;;;18.40;54.20;;;;;;5004407;28;20037;-76
2022/10/06 12:53:26;;;;;;;11.13;2.50;;;18.40;54.50;;;;;;5004854;28;20107;-77
2022/10/06 12:55:56;;;;;;;10.70;2.75;;;18.60;55.00;;;;;;5000326;28;20030;-78
2022/10/06 12:58:32;;;;;;;12.52;2.75;;;18.50;55.10;;;;;;5003866;28;20038;-77
2022/10/06 13:01:04;;;;;;;10.40;2.40;;;18.80;55.60;;;;;;5003834;28;20518;-76
2022/10/06 13:03:30;;;;;;;9.68;2.38;;;19.10;53.10;;;;;;5003119;28;20065;-77
2022/10/06 13:05:59;;;;;;;9.38;2.80;;;19.30;53.00;;;;;;5004230;28;20469;-76
2022/10/06 13:08:27;;;;;;;9.40;2.40;;;19.40;52.30;;;;;;5001546;28;20394;-75
2022/10/06 13:11:26;;;;;;;11.27;2.90;;;19.60;51.00;;;;;;5002335;28;20458;-75
2022/10/06 13:13:54;;;;;;;11.85;2.70;;;19.70;50.60;;;;;;5002322;28;20052;-76